createdAt,value
2023-04-02T00:01:39.795Z,98991.53
2023-04-02T00:04:14.819Z,98987.22
2023-04-02T00:06:45.067Z,98988.84
2023-04-02T00:09:14.856Z,98982.03
2023-04-02T00:11:44.725Z,98987.81
2023-04-02T00:14:31.897Z,98988.75
2023-04-02T00:17:05.959Z,98984.41
2023-04-02T00:19:44.963Z,98985.38
2023-04-02T00:22:20.378Z,98985.47
2023-04-02T00:24:51.012Z,98981.22
2023-04-02T00:27:18.042Z,98987.22
2023-04-02T00:29:55.524Z,98980.44
2023-04-02T00:32:30.470Z,98979.59
2023-04-02T00:35:00.914Z,98978.75
2023-04-02T00:37:38.683Z,98971.88
2023-04-02T00:40:16.695Z,98986.47
2023-04-02T00:42:48.107Z,98999.34
2023-04-02T00:45:37.109Z,98989.94
2023-04-02T00:48:31.644Z,98998.47
2023-04-02T00:51:11.656Z,98999.34
2023-04-02T00:53:42.564Z,99009.56
2023-04-02T00:56:20.586Z,99003.59
2023-04-02T00:58:53.510Z,98995.91
2023-04-02T01:01:25.170Z,98997.63
2023-04-02T01:04:00.289Z,98998.44
2023-04-02T01:06:37.961Z,99003.59
2023-04-02T01:09:23.104Z,99000.97
2023-04-02T01:12:05.737Z,99001.75
2023-04-02T01:14:52.339Z,99007.81
2023-04-02T01:17:49.033Z,99005.16
2023-04-02T01:20:25.410Z,99010.34
2023-04-02T01:22:58.841Z,98995.78
2023-04-02T01:25:54.775Z,98994.03
2023-04-02T01:28:39.668Z,98996.53
2023-04-02T01:31:06.587Z,99000.81
2023-04-02T01:33:35.308Z,99006.94
2023-04-02T01:36:26.387Z,99007.69
2023-04-02T01:39:12.313Z,99012.03
2023-04-02T01:41:46.708Z,99018.03
2023-04-02T01:44:29.670Z,99019.72
2023-04-02T01:47:03.870Z,99020.47
2023-04-02T01:49:33.121Z,99024.69
2023-04-02T01:51:59.644Z,99027.31
2023-04-02T01:54:31.456Z,99021.38
2023-04-02T01:56:58.263Z,99026.44
2023-04-02T01:59:26.407Z,99024.75
2023-04-02T02:02:02.661Z,99019.66
2023-04-02T02:04:29.916Z,99025.56
2023-04-02T02:07:00.859Z,99024.75
2023-04-02T02:09:35.795Z,99029.75
2023-04-02T02:12:07.208Z,99028.03
2023-04-02T02:14:33.806Z,99026.41
2023-04-02T02:17:13.352Z,99029.63
2023-04-02T02:19:44.940Z,99030.56
2023-04-02T02:22:14.286Z,99028.84
2023-04-02T02:24:44.166Z,99029.69
2023-04-02T02:27:25.495Z,99024.63
2023-04-02T02:29:53.948Z,99038.19
2023-04-02T02:32:27.412Z,99033.22
2023-04-02T02:35:19.269Z,99027.16
2023-04-02T02:37:52.623Z,99031.47
2023-04-02T02:40:26.706Z,99029.72
2023-04-02T02:42:59.760Z,99031.47
2023-04-02T02:45:30.033Z,99038.38
2023-04-02T02:48:00.461Z,99032.44
2023-04-02T02:50:32.543Z,99027.31
2023-04-02T02:53:05.375Z,99031.53
2023-04-02T02:55:36.977Z,99024.56
2023-04-02T02:58:15.615Z,99026.34
2023-04-02T03:00:46.140Z,99024.56
2023-04-02T03:03:18.911Z,99032.13
2023-04-02T03:05:53.859Z,99027.88
2023-04-02T03:08:54.555Z,99031.28
2023-04-02T03:11:39.976Z,99027.06
2023-04-02T03:14:31.549Z,99025.22
2023-04-02T03:17:30.301Z,99026.00
2023-04-02T03:20:13.441Z,99019.06
2023-04-02T03:22:54.072Z,99015.75
2023-04-02T03:25:38.749Z,99015.09
2023-04-02T03:28:16.985Z,99019.50
2023-04-02T03:30:52.904Z,99016.09
2023-04-02T03:33:28.878Z,99014.38
2023-04-02T03:35:59.906Z,99005.84
2023-04-02T03:38:52.437Z,99020.47
2023-04-02T03:41:27.632Z,99022.97
2023-04-02T03:44:00.132Z,99021.31
2023-04-02T03:46:44.752Z,99033.28
2023-04-02T03:49:31.556Z,99033.34
2023-04-02T03:52:06.807Z,99031.69
2023-04-02T03:54:36.436Z,99032.44
2023-04-02T03:57:11.300Z,99030.81
2023-04-02T03:59:56.377Z,99026.50
2023-04-02T04:02:47.965Z,99027.34
2023-04-02T04:05:31.198Z,99031.63
2023-04-02T04:08:08.025Z,99036.81
2023-04-02T04:10:40.469Z,99029.91
2023-04-02T04:13:15.382Z,99043.59
2023-04-02T04:16:00.507Z,99040.19
2023-04-02T04:18:38.008Z,99042.75
2023-04-02T04:21:37.354Z,99045.25
2023-04-02T04:24:06.648Z,99043.59
2023-04-02T04:26:53.519Z,99053.88
2023-04-02T04:29:47.047Z,99048.72
2023-04-02T04:32:33.843Z,99052.16
2023-04-02T04:35:26.697Z,99055.56
2023-04-02T04:38:07.718Z,99060.72
2023-04-02T04:40:37.534Z,99068.50
2023-04-02T04:43:12.341Z,99067.75
2023-04-02T04:45:45.100Z,99076.25
2023-04-02T04:48:29.656Z,99074.63
2023-04-02T04:51:01.487Z,99078.09
2023-04-02T04:53:32.443Z,99083.19
2023-04-02T04:56:16.101Z,99083.31
2023-04-02T04:59:11.059Z,99082.50
2023-04-02T05:01:42.930Z,99084.31
2023-04-02T05:04:15.012Z,99080.00
2023-04-02T05:06:56.621Z,99087.69
2023-04-02T05:09:53.081Z,99079.88
2023-04-02T05:12:39.044Z,99080.81
2023-04-02T05:15:42.190Z,99079.97
2023-04-02T05:18:21.060Z,99085.22
2023-04-02T05:20:58.519Z,99101.53
2023-04-02T05:23:30.669Z,99097.25
2023-04-02T05:26:11.757Z,99096.34
2023-04-02T05:28:50.543Z,99094.66
2023-04-02T05:31:29.479Z,99092.13
2023-04-02T05:33:56.770Z,99102.38
2023-04-02T05:36:29.343Z,99112.69
2023-04-02T05:38:57.755Z,99112.69
2023-04-02T05:41:31.221Z,99104.97
2023-04-02T05:44:16.488Z,99105.81
2023-04-02T05:46:51.266Z,99103.25
2023-04-02T05:49:40.137Z,99114.41
2023-04-02T05:52:14.395Z,99114.38
2023-04-02T05:55:04.038Z,99121.22
2023-04-02T05:57:44.497Z,99125.47
2023-04-02T06:00:25.273Z,99121.22
2023-04-02T06:03:00.029Z,99122.94
2023-04-02T06:05:33.880Z,99116.06
2023-04-02T06:08:11.194Z,99117.75
2023-04-02T06:10:45.537Z,99122.03
2023-04-02T06:13:17.708Z,99127.19
2023-04-02T06:15:46.051Z,99129.78
2023-04-02T06:18:22.007Z,99127.22
2023-04-02T06:20:48.644Z,99128.09
2023-04-02T06:23:31.038Z,99134.94
2023-04-02T06:26:06.371Z,99145.25
2023-04-02T06:28:48.267Z,99140.97
2023-04-02T06:31:45.131Z,99135.84
2023-04-02T06:34:16.469Z,99146.06
2023-04-02T06:36:49.780Z,99146.88
2023-04-02T06:39:24.031Z,99145.19
2023-04-02T06:42:14.917Z,99142.63
2023-04-02T06:44:41.666Z,99146.94
2023-04-02T06:47:27.077Z,99140.09
2023-04-02T06:50:03.980Z,99145.25
2023-04-02T06:52:39.485Z,99139.25
2023-04-02T06:55:32.324Z,99146.97
2023-04-02T06:58:03.471Z,99141.84
2023-04-02T07:00:42.578Z,99141.00
2023-04-02T07:03:26.220Z,99159.00
2023-04-02T07:05:56.574Z,99138.41
2023-04-02T07:08:28.049Z,99146.13
2023-04-02T07:10:55.414Z,99137.56
2023-04-02T07:13:25.838Z,99131.59
2023-04-02T07:15:54.921Z,99146.16
2023-04-02T07:18:34.180Z,99142.72
2023-04-02T07:21:00.813Z,99152.16
2023-04-02T07:23:27.378Z,99152.16
2023-04-02T07:25:55.411Z,99154.75
2023-04-02T07:28:23.111Z,99163.31
2023-04-02T07:30:53.548Z,99163.28
2023-04-02T07:33:25.424Z,99153.88
2023-04-02T07:35:54.183Z,99156.44
2023-04-02T07:38:23.306Z,99155.53
2023-04-02T07:40:50.388Z,99166.72
2023-04-02T07:43:16.959Z,99167.53
2023-04-02T07:45:43.509Z,99165.81
2023-04-02T07:48:16.232Z,99164.09
2023-04-02T07:50:45.228Z,99169.25
2023-04-02T07:53:40.444Z,99164.06
2023-04-02T07:56:07.673Z,99169.19
2023-04-02T07:58:36.549Z,99176.00
2023-04-02T08:01:05.445Z,99165.72
2023-04-02T08:03:34.295Z,99173.50
2023-04-02T08:06:04.401Z,99176.09
2023-04-02T08:08:30.986Z,99181.25
2023-04-02T08:10:57.702Z,99179.47
2023-04-02T08:13:26.594Z,99184.56
2023-04-02T08:15:55.619Z,99187.91
2023-04-02T08:18:24.420Z,99196.53
2023-04-02T08:20:52.660Z,99193.03
2023-04-02T08:23:22.317Z,99189.34
2023-04-02T08:25:49.874Z,99200.41
2023-04-02T08:28:19.343Z,99213.28
2023-04-02T08:30:49.021Z,99209.97
2023-04-02T08:33:19.007Z,99206.25
2023-04-02T08:35:47.026Z,99207.84
2023-04-02T08:38:18.596Z,99203.41
2023-04-02T08:40:51.432Z,99215.31
2023-04-02T08:43:53.413Z,99209.16
2023-04-02T08:46:34.799Z,99212.59
2023-04-02T08:49:04.645Z,99209.50
2023-04-02T08:51:39.030Z,99211.16
2023-04-02T08:54:24.740Z,99228.63
2023-04-02T08:57:12.885Z,99226.81
2023-04-02T08:59:44.291Z,99229.66
2023-04-02T09:02:16.020Z,99231.16
2023-04-02T09:04:45.062Z,99234.50
2023-04-02T09:07:12.417Z,99232.75
2023-04-02T09:09:41.223Z,99228.28
2023-04-02T09:12:18.721Z,99234.88
2023-04-02T09:15:26.649Z,99232.25
2023-04-02T09:18:03.632Z,99222.56
2023-04-02T09:20:30.462Z,99226.13
2023-04-02T09:22:57.813Z,99234.75
2023-04-02T09:25:34.302Z,99234.97
2023-04-02T09:28:04.999Z,99233.16
2023-04-02T09:31:02.030Z,99235.97
2023-04-02T09:33:44.093Z,99247.34
2023-04-02T09:36:26.424Z,99239.47
2023-04-02T09:39:12.950Z,99247.25
2023-04-02T09:41:39.534Z,99250.75
2023-04-02T09:44:24.890Z,99242.94
2023-04-02T09:47:00.096Z,99252.44
2023-04-02T09:49:33.432Z,99254.06
2023-04-02T09:52:21.226Z,99251.66
2023-04-02T09:55:11.934Z,99252.34
2023-04-02T09:57:38.846Z,99261.19
2023-04-02T10:00:41.793Z,99254.13
2023-04-02T10:03:26.663Z,99259.16
2023-04-02T10:06:11.018Z,99259.31
2023-04-02T10:08:42.430Z,99259.22
2023-04-02T10:11:17.207Z,99262.75
2023-04-02T10:13:51.468Z,99261.00
2023-04-02T10:16:23.828Z,99259.53
2023-04-02T10:19:00.317Z,99250.28
2023-04-02T10:21:33.198Z,99250.22
2023-04-02T10:24:03.037Z,99256.13
2023-04-02T10:27:09.761Z,99254.34
2023-04-02T10:29:54.074Z,99254.94
2023-04-02T10:32:31.635Z,99258.69
2023-04-02T10:35:06.462Z,99256.94
2023-04-02T10:38:00.456Z,99262.13
2023-04-02T10:40:30.012Z,99254.38
2023-04-02T10:43:28.419Z,99260.41
2023-04-02T10:46:22.424Z,99259.59
2023-04-02T10:49:30.630Z,99259.50
2023-04-02T10:52:13.654Z,99255.88
2023-04-02T10:54:52.802Z,99257.63
2023-04-02T10:57:40.638Z,99251.50
2023-04-02T11:00:16.735Z,99253.88
2023-04-02T11:03:06.065Z,99250.41
2023-04-02T11:05:44.113Z,99253.81
2023-04-02T11:08:22.936Z,99250.97
2023-04-02T11:10:59.851Z,99249.94
2023-04-02T11:13:31.969Z,99239.22
2023-04-02T11:16:01.146Z,99235.75
2023-04-02T11:18:36.105Z,99248.50
2023-04-02T11:21:54.931Z,99234.44
2023-04-02T11:24:31.556Z,99234.75
2023-04-02T11:27:10.463Z,99233.00
2023-04-02T11:30:08.034Z,99228.00
2023-04-02T11:32:36.464Z,99234.44
2023-04-02T11:35:34.664Z,99232.75
2023-04-02T11:38:11.855Z,99223.13
2023-04-02T11:40:48.812Z,99224.91
2023-04-02T11:43:33.651Z,99236.28
2023-04-02T11:46:07.585Z,99235.72
2023-04-02T11:48:36.384Z,99239.06
2023-04-02T11:51:22.479Z,99232.75
2023-04-02T11:53:54.453Z,99235.19
2023-04-02T11:56:37.265Z,99234.09
2023-04-02T11:59:44.803Z,99228.09
2023-04-02T12:02:37.668Z,99216.75
2023-04-02T12:05:10.341Z,99217.97
2023-04-02T12:08:05.238Z,99233.06
2023-04-02T12:10:48.941Z,99219.94
2023-04-02T12:13:20.424Z,99218.47
2023-04-02T12:15:49.309Z,99213.28
2023-04-02T12:18:20.835Z,99207.25
2023-04-02T12:20:55.940Z,99202.66
2023-04-02T12:23:29.651Z,99208.13
2023-04-02T12:25:59.807Z,99198.25
2023-04-02T12:28:33.917Z,99200.22
2023-04-02T12:31:09.597Z,99193.00
2023-04-02T12:33:37.602Z,99195.19
2023-04-02T12:36:22.044Z,99194.91
2023-04-02T12:39:00.873Z,99185.66
2023-04-02T12:41:32.243Z,99190.06
2023-04-02T12:44:16.443Z,99185.31
2023-04-02T12:46:46.532Z,99180.91
2023-04-02T12:49:15.389Z,99187.81
2023-04-02T12:51:44.392Z,99184.09
2023-04-02T12:54:17.340Z,99197.22
2023-04-02T12:56:47.688Z,99183.91
2023-04-02T12:59:44.926Z,99193.63
2023-04-02T13:02:33.205Z,99180.44
2023-04-02T13:05:03.621Z,99184.91
2023-04-02T13:07:33.052Z,99183.13
2023-04-02T13:10:23.202Z,99191.19
2023-04-02T13:12:56.424Z,99185.19
2023-04-02T13:15:28.322Z,99180.13
2023-04-02T13:18:04.039Z,99179.13
2023-04-02T13:20:34.302Z,99177.66
2023-04-02T13:23:22.677Z,99184.44
2023-04-02T13:25:52.125Z,99178.44
2023-04-02T13:28:19.335Z,99183.59
2023-04-02T13:30:46.688Z,99184.63
2023-04-02T13:33:16.764Z,99196.44
2023-04-02T13:35:43.835Z,99192.56
2023-04-02T13:38:12.721Z,99193.19
2023-04-02T13:40:41.995Z,99203.94
2023-04-02T13:43:23.369Z,99205.81
2023-04-02T13:45:56.341Z,99198.28
2023-04-02T13:48:26.145Z,99191.09
2023-04-02T13:50:57.539Z,99195.94
2023-04-02T13:53:36.410Z,99204.47
2023-04-02T13:56:08.457Z,99208.13
2023-04-02T13:58:35.009Z,99207.94
2023-04-02T14:01:04.466Z,99199.69
2023-04-02T14:03:31.170Z,99201.97
2023-04-02T14:06:03.595Z,99194.97
2023-04-02T14:08:52.598Z,99199.69
2023-04-02T14:11:33.671Z,99196.41
2023-04-02T14:14:24.438Z,99197.28
2023-04-02T14:17:15.042Z,99199.09
2023-04-02T14:20:03.115Z,99195.91
2023-04-02T14:22:35.972Z,99200.25
2023-04-02T14:25:30.481Z,99187.84
2023-04-02T14:28:22.168Z,99194.59
2023-04-02T14:31:12.924Z,99220.19
2023-04-02T14:33:42.236Z,99225.19
2023-04-02T14:36:18.681Z,99228.84
2023-04-02T14:38:59.624Z,99229.13
2023-04-02T14:41:49.942Z,99230.31
2023-04-02T14:44:23.318Z,99227.94
2023-04-02T14:46:55.224Z,99237.53
2023-04-02T14:49:27.055Z,99239.25
2023-04-02T14:51:56.567Z,99252.34
2023-04-02T14:54:38.773Z,99250.84
2023-04-02T14:57:10.545Z,99248.19
2023-04-02T14:59:39.943Z,99252.44
2023-04-02T15:02:16.567Z,99269.72
2023-04-02T15:05:01.791Z,99271.59
2023-04-02T15:07:37.166Z,99276.94
2023-04-02T15:10:15.951Z,99276.22
2023-04-02T15:12:45.069Z,99277.31
2023-04-02T15:15:39.868Z,99281.63
2023-04-02T15:18:19.672Z,99289.44
2023-04-02T15:20:54.637Z,99310.94
2023-04-02T15:23:54.959Z,99332.22
2023-04-02T15:26:38.270Z,99391.13
2023-04-02T15:29:28.417Z,99385.81
2023-04-02T15:32:14.910Z,99394.19
2023-04-02T15:34:58.914Z,99382.25
2023-04-02T15:37:28.353Z,99374.63
2023-04-02T15:40:14.392Z,99369.56
2023-04-02T15:42:52.353Z,99371.44
2023-04-02T15:45:29.423Z,99359.56
2023-04-02T15:48:44.155Z,99359.59
2023-04-02T15:51:19.750Z,99351.00
2023-04-02T15:54:04.586Z,99345.88
2023-04-02T15:56:46.995Z,99344.16
2023-04-02T15:59:13.485Z,99329.66
2023-04-02T16:02:05.550Z,99337.41
2023-04-02T16:05:06.468Z,99332.25
2023-04-02T16:07:54.145Z,99331.41
2023-04-02T16:10:42.007Z,99329.72
2023-04-02T16:13:47.441Z,99325.47
2023-04-02T16:16:35.145Z,99325.47
2023-04-02T16:19:24.518Z,99334.88
2023-04-02T16:22:17.446Z,99325.50
2023-04-02T16:24:48.187Z,99340.09
2023-04-02T16:27:27.326Z,99339.25
2023-04-02T16:29:55.453Z,99335.84
2023-04-02T16:32:49.413Z,99339.25
2023-04-02T16:38:00.349Z,99343.56
2023-04-02T16:40:38.594Z,99344.47
2023-04-02T16:43:10.850Z,99353.03
2023-04-02T16:45:52.979Z,99351.28
2023-04-02T16:48:23.554Z,99366.75
2023-04-02T16:51:17.681Z,99369.28
2023-04-02T16:54:02.168Z,99376.94
2023-04-02T16:56:41.868Z,99378.63
2023-04-02T16:59:22.665Z,99390.56
2023-04-02T17:02:07.917Z,99398.31
2023-04-02T17:04:56.746Z,99397.53
2023-04-02T17:07:36.785Z,99403.50
2023-04-02T17:10:30.181Z,99416.41
2023-04-02T17:13:03.919Z,99413.78
2023-04-02T17:15:39.513Z,99424.97
2023-04-02T17:18:16.346Z,99421.97
2023-04-02T17:20:43.887Z,99428.81
2023-04-02T17:23:13.907Z,99426.31
2023-04-02T17:25:55.950Z,99431.31
2023-04-02T17:28:36.612Z,99427.88
2023-04-02T17:31:25.247Z,99433.88
2023-04-02T17:33:54.986Z,99434.00
2023-04-02T17:36:24.995Z,99443.38
2023-04-02T17:39:03.668Z,99438.78
2023-04-02T17:41:51.520Z,99435.31
2023-04-02T17:44:38.878Z,99429.41
2023-04-02T17:47:23.107Z,99436.06
2023-04-02T17:50:04.714Z,99428.97
2023-04-02T17:52:44.742Z,99436.41
2023-04-02T17:55:40.783Z,99440.75
2023-04-02T17:58:49.547Z,99441.41
2023-04-02T18:01:31.259Z,99446.44
2023-04-02T18:04:19.730Z,99459.25
2023-04-02T18:07:19.263Z,99460.75
2023-04-02T18:10:07.568Z,99472.63
2023-04-02T18:12:57.071Z,99476.03
2023-04-02T18:15:47.907Z,99481.13
2023-04-02T18:18:33.365Z,99485.94
2023-04-02T18:21:43.790Z,99490.31
2023-04-02T18:24:39.140Z,99491.06
2023-04-02T18:27:16.897Z,99508.94
2023-04-02T18:29:55.974Z,99515.66
2023-04-02T18:33:00.003Z,99516.59
2023-04-02T18:35:35.500Z,99516.34
2023-04-02T18:38:35.119Z,99523.84
2023-04-02T18:41:07.407Z,99528.97
2023-04-02T18:43:42.136Z,99528.06
2023-04-02T18:46:33.216Z,99512.81
2023-04-02T18:49:18.337Z,99528.00
2023-04-02T18:51:46.888Z,99537.97
2023-04-02T18:54:18.410Z,99536.25
2023-04-02T18:56:47.572Z,99553.22
2023-04-02T18:59:33.251Z,99556.63
2023-04-02T19:02:21.140Z,99555.63
2023-04-02T19:04:58.278Z,99563.25
2023-04-02T19:07:29.276Z,99564.00
2023-04-02T19:10:06.484Z,99567.25
2023-04-02T19:12:33.958Z,99566.47
2023-04-02T19:15:03.501Z,99561.06
2023-04-02T19:17:39.482Z,99571.28
2023-04-02T19:20:10.257Z,99573.84
2023-04-02T19:22:36.706Z,99586.66
2023-04-02T19:25:12.351Z,99583.84
2023-04-02T19:27:51.430Z,99574.28
2023-04-02T19:30:31.144Z,99581.06
2023-04-02T19:33:18.847Z,99600.53
2023-04-02T19:36:11.827Z,99608.13
2023-04-02T19:39:16.795Z,99603.06
2023-04-02T19:41:52.216Z,99611.78
2023-04-02T19:44:19.175Z,99617.66
2023-04-02T19:46:48.275Z,99609.91
2023-04-02T19:49:22.797Z,99617.53
2023-04-02T19:51:52.039Z,99617.56
2023-04-02T19:54:18.817Z,99613.03
2023-04-02T19:56:48.486Z,99619.84
2023-04-02T19:59:17.926Z,99618.22
2023-04-02T20:01:45.784Z,99617.25
2023-04-02T20:04:12.872Z,99629.09
2023-04-02T20:06:39.528Z,99645.25
2023-04-02T20:09:10.933Z,99640.28
2023-04-02T20:11:39.786Z,99653.66
2023-04-02T20:14:06.339Z,99639.91
2023-04-02T20:16:36.911Z,99650.31
2023-04-02T20:19:06.062Z,99662.47
2023-04-02T20:21:38.251Z,99653.81
2023-04-02T20:24:07.084Z,99651.88
2023-04-02T20:26:35.205Z,99652.75
2023-04-02T20:29:04.763Z,99662.03
2023-04-02T20:31:33.646Z,99667.28
2023-04-02T20:34:02.543Z,99664.63
2023-04-02T20:36:29.458Z,99670.44
2023-04-02T20:39:00.863Z,99667.84
2023-04-02T20:41:32.346Z,99668.94
2023-04-02T20:44:01.259Z,99686.09
2023-04-02T20:46:27.886Z,99685.94
2023-04-02T20:48:57.146Z,99697.13
2023-04-02T20:51:23.672Z,99691.34
2023-04-02T20:53:50.182Z,99701.50
2023-04-02T20:56:22.086Z,99699.69
2023-04-02T20:58:49.543Z,99718.28
2023-04-02T21:01:27.178Z,99723.41
2023-04-02T21:03:58.990Z,99729.16
2023-04-02T21:06:30.824Z,99736.88
2023-04-02T21:09:05.292Z,99741.09
2023-04-02T21:11:35.934Z,99746.31
2023-04-02T21:14:05.028Z,99750.13
2023-04-02T21:16:34.891Z,99750.06
2023-04-02T21:19:07.039Z,99759.44
2023-04-02T21:21:37.490Z,99761.44
2023-04-02T21:24:06.398Z,99759.88
2023-04-02T21:26:36.368Z,99761.84
2023-04-02T21:29:06.274Z,99761.78
2023-04-02T21:31:40.392Z,99767.69
2023-04-02T21:34:09.185Z,99782.31
2023-04-02T21:36:39.543Z,99778.03
2023-04-02T21:39:25.780Z,99781.38
2023-04-02T21:41:53.302Z,99778.38
2023-04-02T21:44:23.514Z,99779.91
2023-04-02T21:46:52.975Z,99775.63
2023-04-02T21:49:22.841Z,99788.53
2023-04-02T21:51:52.588Z,99789.50
2023-04-02T21:54:24.055Z,99795.19
2023-04-02T21:56:50.996Z,99787.41
2023-04-02T21:59:18.257Z,99793.19
2023-04-02T22:01:52.373Z,99804.66
2023-04-02T22:04:26.091Z,99794.09
2023-04-02T22:06:55.486Z,99802.59
2023-04-02T22:09:24.371Z,99804.06
2023-04-02T22:11:59.188Z,99808.41
2023-04-02T22:14:27.506Z,99805.06
2023-04-02T22:16:54.303Z,99819.22
2023-04-02T22:19:21.426Z,99808.44
2023-04-02T22:21:48.060Z,99819.75
2023-04-02T22:24:16.371Z,99814.56
2023-04-02T22:26:44.319Z,99815.78
2023-04-02T22:29:13.809Z,99819.88
2023-04-02T22:31:40.475Z,99822.75
2023-04-02T22:34:10.445Z,99815.91
2023-04-02T22:36:39.790Z,99823.56
2023-04-02T22:39:09.849Z,99826.97
2023-04-02T22:41:36.435Z,99827.06
2023-04-02T22:44:07.920Z,99831.09
2023-04-02T22:46:34.792Z,99836.22
2023-04-02T22:49:01.637Z,99844.97
2023-04-02T22:51:30.708Z,99843.31
2023-04-02T22:53:59.800Z,99847.72
2023-04-02T22:56:32.128Z,99848.25
2023-04-02T22:58:59.362Z,99849.25
2023-04-02T23:01:35.433Z,99858.75
2023-04-02T23:04:02.219Z,99851.09
2023-04-02T23:06:29.566Z,99857.84
2023-04-02T23:09:01.025Z,99859.56
2023-04-02T23:11:27.983Z,99862.63
2023-04-02T23:13:57.040Z,99873.06
2023-04-02T23:16:26.839Z,99865.81
2023-04-02T23:18:57.371Z,99872.31
2023-04-02T23:21:27.521Z,99871.66
2023-04-02T23:23:54.578Z,99868.34
2023-04-02T23:26:29.378Z,99874.34
2023-04-02T23:28:57.566Z,99864.50
2023-04-02T23:31:24.710Z,99873.47
2023-04-02T23:33:52.356Z,99872.78
2023-04-02T23:36:30.809Z,99876.34
2023-04-02T23:39:01.422Z,99867.41
2023-04-02T23:41:31.587Z,99872.22
2023-04-02T23:44:00.656Z,99879.75
2023-04-02T23:46:28.742Z,99881.94
2023-04-02T23:48:59.180Z,99880.06
2023-04-02T23:51:29.613Z,99893.13
2023-04-02T23:53:58.465Z,99885.44
2023-04-02T23:56:25.983Z,99885.06
2023-04-02T23:58:52.658Z,99890.50
